Terminal Aerodrome Forecast
Issued by NWS Goodland, KS

Home | Current Version | Previous Version | Text Only | Print | Product List | Glossary On
Versions: 1 2 3 4 5 6 7 8 9 10 11 12 13 14 15 16
000
FTUS43 KGLD 261123
TAFGLD
TAF
KGLD 261123Z 2612/2712 28010KT P6SM SCT250
     FM261700 31018G26KT P6SM BKN200
     FM270200 33011KT P6SM BKN100
     FM270900 12006KT P6SM BKN050=

USA.gov is the U.S. government's official web portal to all federal, state and local government web resources and services.